Eglin Air Force Base
KVPS : rendu visible

Aérodrome :











RETROUVEZ-NOUS SUR...

 
LOGIN :

S'inscrire | Disclaimer

   EN    FR    IT 

 









Légende :    VFR   VFR Marginal   IFR   IFR Intensif   IFR Très Intensif
Visi : 
Plafond : 
>= 8 km
>= 3000ft
5 à 8 km
1000 à 3000 ft
1500m à 5 km
500 à 1000 ft
800 à 1500m
200 à 500 ft
< 800m
< 200 ft
Symboles :   Orages  Brouillard  Fortes neiges  Fortes précipitations  Vent > 20 kt






- Altitude de l'aérodrome : 87 ft
- Code IATA : VPS


KVPS - Eglin Air Force Base

DERNIER METAR :
  • 290601Z AUTO 18007KT 10SM SCT008 SCT015 24/23 A3001 RMK AO2 SLP168 $

METARs EXPIRÉS :
  • 290556Z AUTO 18008KT 10SM SCT008 SCT015 BKN024 24/23 A3001 RMK AO2 BKN V SCT CIG 009 RWY01 CIG 009 RWY30 SLP168 T02420231 10249 20242 402800230 58007 $
  • 290516Z AUTO 17009KT 10SM SCT009 24/23 A3002 RMK AO2 SLP172 $
  • 290506Z AUTO 19006KT 10SM BKN009 BKN015 24/23 A3002 RMK AO2 CIG 009V015 BKN009 V SCT CIG 007 RWY01 CIG 007 RWY30 SLP172 $
  • 290451Z AUTO 17008KT 10SM SCT010 BKN017 24/23 A3002 RMK AO2 BKN V SCT CIG 007 RWY01 CIG 009 RWY19 CIG 007 RWY30 SLP172 $
  • 290436Z AUTO 18008KT 10SM SCT009 24/23 A3003 RMK AO2 SLP175 $
  • 290356Z AUTO 18006KT 10SM OVC008 24/24 A3003 RMK AO2 OVC V BKN CIG 007 RWY01 CIG 007 RWY30 SLP175 T02440235 $

TAF AMD TAF KVPS
Valide du 29 à 06h jusqu'au 30 à 07h UTC


290600Z 2906/3007 18008KT 8000 BR SCT009 BKN024 QNH3001INS
TEMPO 2906/2909 4800 BR BKN009
BECMG 2910/2911 19006KT 4800 BR BKN005 QNH3002INS
TEMPO 2911/2914 VCSH BKN015
BECMG 2913/2914 23008KT 9999 NSW SCT005 SCT012 QNH3005INS
BECMG 3000/3001 25010KT 9999 VCSH SCT015 SCT020 QNH3010INS
BECMG 3001/3002 30012KT 9999 NSW FEW020 FEW250 QNH3015INS TX29/2920Z TN23/2914Z



MET'MAP, la Météo Aéronautique d'un coup d'oeil ! - Copyright ORBIFLY Décembre 2007 - Disclaimer

ORBIFLY MET'MAP TEAM :

Programmation & Développement : Alexandra Zaïnal
Sur une idée originale de : Baudouin d'Aumeries
Assistance à la programmation : Marc-Olivier Méhu
Soutien technique & logistique : Manuel Goepfert

Contact : metmap@orbifly.com




SOURCES & CREDITS :

   NOAA       Earth
Advisory